sensor_id;sensor_type;location;lat;lon;timestamp;P1;durP1;ratioP1;P2;durP2;ratioP2
4553;SDS011;2289;48.316;15.174;2023-06-10T00:00:19;6.90;;;4.53;;
4553;SDS011;2289;48.316;15.174;2023-06-10T00:02:48;12.37;;;5.30;;
4553;SDS011;2289;48.316;15.174;2023-06-10T00:05:17;6.50;;;5.80;;
4553;SDS011;2289;48.316;15.174;2023-06-10T00:07:48;8.93;;;5.07;;
4553;SDS011;2289;48.316;15.174;2023-06-10T00:10:18;5.47;;;4.97;;
4553;SDS011;2289;48.316;15.174;2023-06-10T00:12:47;5.00;;;4.50;;
4553;SDS011;2289;48.316;15.174;2023-06-10T00:15:16;5.90;;;5.40;;
4553;SDS011;2289;48.316;15.174;2023-06-10T00:17:45;5.73;;;5.23;;
4553;SDS011;2289;48.316;15.174;2023-06-10T00:20:14;6.80;;;5.40;;
4553;SDS011;2289;48.316;15.174;2023-06-10T00:22:42;6.60;;;4.63;;
4553;SDS011;2289;48.316;15.174;2023-06-10T00:25:13;8.33;;;5.27;;
4553;SDS011;2289;48.316;15.174;2023-06-10T00:27:44;6.30;;;5.00;;
4553;SDS011;2289;48.316;15.174;2023-06-10T00:30:13;7.13;;;4.93;;
4553;SDS011;2289;48.316;15.174;2023-06-10T00:32:42;6.50;;;5.60;;
4553;SDS011;2289;48.316;15.174;2023-06-10T00:35:10;7.97;;;6.53;;
4553;SDS011;2289;48.316;15.174;2023-06-10T00:37:39;6.87;;;5.47;;
4553;SDS011;2289;48.316;15.174;2023-06-10T00:40:08;6.33;;;5.43;;
4553;SDS011;2289;48.316;15.174;2023-06-10T00:42:38;6.57;;;5.97;;
4553;SDS011;2289;48.316;15.174;2023-06-10T00:45:09;7.50;;;6.00;;
4553;SDS011;2289;48.316;15.174;2023-06-10T00:47:39;8.10;;;5.27;;
4553;SDS011;2289;48.316;15.174;2023-06-10T00:50:09;7.33;;;5.60;;
4553;SDS011;2289;48.316;15.174;2023-06-10T00:52:39;8.37;;;6.50;;
4553;SDS011;2289;48.316;15.174;2023-06-10T00:55:10;7.17;;;5.60;;
4553;SDS011;2289;48.316;15.174;2023-06-10T00:57:39;7.23;;;6.50;;
4553;SDS011;2289;48.316;15.174;2023-06-10T01:00:13;6.80;;;6.20;;
4553;SDS011;2289;48.316;15.174;2023-06-10T01:02:45;6.50;;;5.90;;
4553;SDS011;2289;48.316;15.174;2023-06-10T01:05:14;8.57;;;6.90;;
4553;SDS011;2289;48.316;15.174;2023-06-10T01:07:45;5.67;;;5.07;;
4553;SDS011;2289;48.316;15.174;2023-06-10T01:10:18;6.37;;;5.67;;
4553;SDS011;2289;48.316;15.174;2023-06-10T01:12:50;6.30;;;5.70;;
4553;SDS011;2289;48.316;15.174;2023-06-10T01:15:25;6.00;;;5.40;;
4553;SDS011;2289;48.316;15.174;2023-06-10T01:17:54;7.93;;;5.60;;
4553;SDS011;2289;48.316;15.174;2023-06-10T01:20:24;9.87;;;6.20;;
4553;SDS011;2289;48.316;15.174;2023-06-10T01:22:56;7.00;;;6.30;;
4553;SDS011;2289;48.316;15.174;2023-06-10T01:25:25;16.10;;;6.27;;
4553;SDS011;2289;48.316;15.174;2023-06-10T01:27:58;7.50;;;6.67;;
4553;SDS011;2289;48.316;15.174;2023-06-10T01:30:33;6.87;;;6.17;;
4553;SDS011;2289;48.316;15.174;2023-06-10T01:33:08;6.87;;;6.17;;
4553;SDS011;2289;48.316;15.174;2023-06-10T01:35:40;6.67;;;5.60;;
4553;SDS011;2289;48.316;15.174;2023-06-10T01:38:13;7.70;;;5.80;;
4553;SDS011;2289;48.316;15.174;2023-06-10T01:40:52;7.47;;;6.50;;
4553;SDS011;2289;48.316;15.174;2023-06-10T01:43:21;8.30;;;7.40;;
4553;SDS011;2289;48.316;15.174;2023-06-10T01:45:50;10.53;;;6.30;;
4553;SDS011;2289;48.316;15.174;2023-06-10T01:48:19;10.40;;;6.17;;
4553;SDS011;2289;48.316;15.174;2023-06-10T01:50:50;5.50;;;4.97;;
4553;SDS011;2289;48.316;15.174;2023-06-10T01:53:21;7.50;;;6.20;;
4553;SDS011;2289;48.316;15.174;2023-06-10T01:55:50;11.50;;;5.23;;
4553;SDS011;2289;48.316;15.174;2023-06-10T01:58:18;6.57;;;5.73;;
4553;SDS011;2289;48.316;15.174;2023-06-10T02:00:47;8.33;;;6.10;;
4553;SDS011;2289;48.316;15.174;2023-06-10T02:03:15;6.87;;;6.17;;
4553;SDS011;2289;48.316;15.174;2023-06-10T02:05:45;6.70;;;5.80;;
4553;SDS011;2289;48.316;15.174;2023-06-10T02:08:15;6.53;;;5.93;;
4553;SDS011;2289;48.316;15.174;2023-06-10T02:10:45;7.63;;;6.90;;
4553;SDS011;2289;48.316;15.174;2023-06-10T02:13:14;7.60;;;6.10;;
4553;SDS011;2289;48.316;15.174;2023-06-10T02:15:43;6.93;;;5.90;;
4553;SDS011;2289;48.316;15.174;2023-06-10T02:18:12;6.73;;;5.70;;
4553;SDS011;2289;48.316;15.174;2023-06-10T02:20:40;7.27;;;6.53;;
4553;SDS011;2289;48.316;15.174;2023-06-10T02:23:10;7.60;;;5.17;;
4553;SDS011;2289;48.316;15.174;2023-06-10T02:25:39;6.40;;;5.07;;
4553;SDS011;2289;48.316;15.174;2023-06-10T02:28:09;6.70;;;5.83;;
4553;SDS011;2289;48.316;15.174;2023-06-10T02:30:38;8.87;;;6.07;;
4553;SDS011;2289;48.316;15.174;2023-06-10T02:33:08;8.93;;;6.67;;
4553;SDS011;2289;48.316;15.174;2023-06-10T02:35:38;7.00;;;6.03;;
4553;SDS011;2289;48.316;15.174;2023-06-10T02:38:06;7.90;;;6.00;;
4553;SDS011;2289;48.316;15.174;2023-06-10T02:40:35;8.90;;;6.70;;
4553;SDS011;2289;48.316;15.174;2023-06-10T02:43:05;9.10;;;7.03;;
4553;SDS011;2289;48.316;15.174;2023-06-10T02:45:36;10.80;;;6.87;;
4553;SDS011;2289;48.316;15.174;2023-06-10T02:48:13;10.33;;;9.27;;
4553;SDS011;2289;48.316;15.174;2023-06-10T02:50:42;13.03;;;9.00;;
4553;SDS011;2289;48.316;15.174;2023-06-10T02:53:11;9.60;;;8.10;;
4553;SDS011;2289;48.316;15.174;2023-06-10T02:55:40;11.07;;;8.97;;
4553;SDS011;2289;48.316;15.174;2023-06-10T02:58:08;10.60;;;9.50;;
4553;SDS011;2289;48.316;15.174;2023-06-10T03:00:39;11.10;;;10.00;;
4553;SDS011;2289;48.316;15.174;2023-06-10T03:03:09;9.47;;;8.50;;
4553;SDS011;2289;48.316;15.174;2023-06-10T03:05:39;10.00;;;8.77;;
4553;SDS011;2289;48.316;15.174;2023-06-10T03:08:07;12.13;;;8.53;;
4553;SDS011;2289;48.316;15.174;2023-06-10T03:10:36;12.10;;;9.27;;
4553;SDS011;2289;48.316;15.174;2023-06-10T03:13:04;13.97;;;10.23;;
4553;SDS011;2289;48.316;15.174;2023-06-10T03:15:33;11.90;;;10.20;;
4553;SDS011;2289;48.316;15.174;2023-06-10T03:18:05;11.80;;;9.47;;
4553;SDS011;2289;48.316;15.174;2023-06-10T03:20:34;13.47;;;11.00;;
4553;SDS011;2289;48.316;15.174;2023-06-10T03:23:04;12.50;;;10.20;;
4553;SDS011;2289;48.316;15.174;2023-06-10T03:25:33;12.33;;;10.50;;
4553;SDS011;2289;48.316;15.174;2023-06-10T03:28:02;10.90;;;8.07;;
4553;SDS011;2289;48.316;15.174;2023-06-10T03:30:31;14.30;;;10.97;;
4553;SDS011;2289;48.316;15.174;2023-06-10T03:33:00;13.07;;;9.90;;
4553;SDS011;2289;48.316;15.174;2023-06-10T03:35:30;14.47;;;12.50;;
4553;SDS011;2289;48.316;15.174;2023-06-10T03:37:59;12.00;;;10.00;;
4553;SDS011;2289;48.316;15.174;2023-06-10T03:40:28;13.97;;;11.07;;
4553;SDS011;2289;48.316;15.174;2023-06-10T03:43:00;12.83;;;10.93;;
4553;SDS011;2289;48.316;15.174;2023-06-10T03:45:29;11.43;;;10.20;;
4553;SDS011;2289;48.316;15.174;2023-06-10T03:47:59;11.60;;;9.70;;
4553;SDS011;2289;48.316;15.174;2023-06-10T03:50:32;15.40;;;10.50;;
4553;SDS011;2289;48.316;15.174;2023-06-10T03:53:01;15.30;;;11.60;;
4553;SDS011;2289;48.316;15.174;2023-06-10T03:55:30;13.60;;;11.87;;
4553;SDS011;2289;48.316;15.174;2023-06-10T03:57:59;16.13;;;10.53;;
4553;SDS011;2289;48.316;15.174;2023-06-10T04:00:28;11.90;;;10.70;;
4553;SDS011;2289;48.316;15.174;2023-06-10T04:02:57;12.73;;;11.13;;
4553;SDS011;2289;48.316;15.174;2023-06-10T04:05:26;9.90;;;8.90;;
4553;SDS011;2289;48.316;15.174;2023-06-10T04:07:57;11.30;;;10.10;;
4553;SDS011;2289;48.316;15.174;2023-06-10T04:10:26;10.70;;;9.60;;
4553;SDS011;2289;48.316;15.174;2023-06-10T04:12:55;14.57;;;11.63;;
4553;SDS011;2289;48.316;15.174;2023-06-10T04:15:23;14.33;;;10.07;;
4553;SDS011;2289;48.316;15.174;2023-06-10T04:17:52;10.53;;;9.53;;
4553;SDS011;2289;48.316;15.174;2023-06-10T04:20:22;14.23;;;9.70;;
4553;SDS011;2289;48.316;15.174;2023-06-10T04:22:52;11.67;;;9.90;;
4553;SDS011;2289;48.316;15.174;2023-06-10T04:25:24;11.40;;;10.10;;
4553;SDS011;2289;48.316;15.174;2023-06-10T04:27:54;10.27;;;9.23;;
4553;SDS011;2289;48.316;15.174;2023-06-10T04:30:23;11.40;;;9.90;;
4553;SDS011;2289;48.316;15.174;2023-06-10T04:32:52;11.80;;;10.60;;
4553;SDS011;2289;48.316;15.174;2023-06-10T04:35:21;12.13;;;10.93;;
4553;SDS011;2289;48.316;15.174;2023-06-10T04:37:50;12.73;;;11.10;;
4553;SDS011;2289;48.316;15.174;2023-06-10T04:40:19;11.17;;;10.07;;
4553;SDS011;2289;48.316;15.174;2023-06-10T04:42:50;20.53;;;17.60;;
4553;SDS011;2289;48.316;15.174;2023-06-10T04:45:19;16.73;;;15.03;;
4553;SDS011;2289;48.316;15.174;2023-06-10T04:47:48;17.27;;;14.03;;
4553;SDS011;2289;48.316;15.174;2023-06-10T04:50:17;15.20;;;13.60;;
4553;SDS011;2289;48.316;15.174;2023-06-10T04:52:46;13.50;;;12.10;;
4553;SDS011;2289;48.316;15.174;2023-06-10T04:55:15;12.53;;;11.23;;
4553;SDS011;2289;48.316;15.174;2023-06-10T04:57:44;17.13;;;11.23;;
4553;SDS011;2289;48.316;15.174;2023-06-10T05:00:17;13.53;;;12.17;;
4553;SDS011;2289;48.316;15.174;2023-06-10T05:02:46;11.80;;;10.43;;
4553;SDS011;2289;48.316;15.174;2023-06-10T05:05:16;13.40;;;10.00;;
4553;SDS011;2289;48.316;15.174;2023-06-10T05:07:45;17.43;;;12.37;;
4553;SDS011;2289;48.316;15.174;2023-06-10T05:10:14;12.00;;;10.73;;
4553;SDS011;2289;48.316;15.174;2023-06-10T05:12:43;13.43;;;10.93;;
4553;SDS011;2289;48.316;15.174;2023-06-10T05:15:12;12.77;;;11.47;;
4553;SDS011;2289;48.316;15.174;2023-06-10T05:17:43;11.83;;;10.37;;
4553;SDS011;2289;48.316;15.174;2023-06-10T05:20:11;11.57;;;10.37;;
4553;SDS011;2289;48.316;15.174;2023-06-10T05:22:40;11.13;;;9.93;;
4553;SDS011;2289;48.316;15.174;2023-06-10T05:25:09;11.90;;;10.67;;
4553;SDS011;2289;48.316;15.174;2023-06-10T05:27:38;16.60;;;12.90;;
4553;SDS011;2289;48.316;15.174;2023-06-10T05:30:09;13.13;;;11.47;;
4553;SDS011;2289;48.316;15.174;2023-06-10T05:32:39;11.67;;;10.47;;
4553;SDS011;2289;48.316;15.174;2023-06-10T05:35:09;12.43;;;10.70;;
4553;SDS011;2289;48.316;15.174;2023-06-10T05:37:38;12.97;;;11.50;;
4553;SDS011;2289;48.316;15.174;2023-06-10T05:40:08;12.80;;;11.33;;
4553;SDS011;2289;48.316;15.174;2023-06-10T05:42:37;14.77;;;11.63;;
4553;SDS011;2289;48.316;15.174;2023-06-10T05:45:06;13.63;;;12.10;;
4553;SDS011;2289;48.316;15.174;2023-06-10T05:47:36;16.03;;;12.40;;
4553;SDS011;2289;48.316;15.174;2023-06-10T05:50:06;12.50;;;11.40;;
4553;SDS011;2289;48.316;15.174;2023-06-10T05:52:37;12.20;;;10.87;;
4553;SDS011;2289;48.316;15.174;2023-06-10T05:55:08;13.13;;;10.70;;
4553;SDS011;2289;48.316;15.174;2023-06-10T05:57:38;12.03;;;10.83;;
4553;SDS011;2289;48.316;15.174;2023-06-10T06:00:07;10.60;;;9.50;;
4553;SDS011;2289;48.316;15.174;2023-06-10T06:02:36;11.90;;;10.43;;
4553;SDS011;2289;48.316;15.174;2023-06-10T06:05:06;12.37;;;10.43;;
4553;SDS011;2289;48.316;15.174;2023-06-10T06:07:37;15.60;;;11.30;;
4553;SDS011;2289;48.316;15.174;2023-06-10T06:10:06;13.77;;;10.93;;
4553;SDS011;2289;48.316;15.174;2023-06-10T06:12:36;11.60;;;10.47;;
4553;SDS011;2289;48.316;15.174;2023-06-10T06:15:04;12.70;;;11.00;;
4553;SDS011;2289;48.316;15.174;2023-06-10T06:17:35;10.97;;;9.87;;
4553;SDS011;2289;48.316;15.174;2023-06-10T06:20:05;11.90;;;10.70;;
4553;SDS011;2289;48.316;15.174;2023-06-10T06:22:46;11.33;;;10.20;;
4553;SDS011;2289;48.316;15.174;2023-06-10T06:25:15;11.87;;;10.43;;
4553;SDS011;2289;48.316;15.174;2023-06-10T06:27:44;12.60;;;10.37;;
4553;SDS011;2289;48.316;15.174;2023-06-10T06:30:13;11.93;;;10.30;;
4553;SDS011;2289;48.316;15.174;2023-06-10T06:32:43;11.93;;;10.73;;
4553;SDS011;2289;48.316;15.174;2023-06-10T06:35:12;11.77;;;10.60;;
4553;SDS011;2289;48.316;15.174;2023-06-10T06:37:40;12.33;;;11.00;;
4553;SDS011;2289;48.316;15.174;2023-06-10T06:40:11;19.50;;;12.13;;
4553;SDS011;2289;48.316;15.174;2023-06-10T06:42:41;11.90;;;10.80;;
4553;SDS011;2289;48.316;15.174;2023-06-10T06:45:10;11.97;;;10.83;;
4553;SDS011;2289;48.316;15.174;2023-06-10T06:47:39;12.03;;;10.67;;
4553;SDS011;2289;48.316;15.174;2023-06-10T06:50:08;10.43;;;9.43;;
4553;SDS011;2289;48.316;15.174;2023-06-10T06:52:38;11.33;;;10.13;;
4553;SDS011;2289;48.316;15.174;2023-06-10T06:55:07;15.73;;;10.30;;
4553;SDS011;2289;48.316;15.174;2023-06-10T06:57:38;12.20;;;11.00;;
4553;SDS011;2289;48.316;15.174;2023-06-10T07:00:07;11.60;;;9.83;;
4553;SDS011;2289;48.316;15.174;2023-06-10T07:02:37;11.90;;;10.80;;
4553;SDS011;2289;48.316;15.174;2023-06-10T07:05:07;12.13;;;10.80;;
4553;SDS011;2289;48.316;15.174;2023-06-10T07:07:37;11.90;;;10.53;;
4553;SDS011;2289;48.316;15.174;2023-06-10T07:10:05;12.17;;;10.47;;
4553;SDS011;2289;48.316;15.174;2023-06-10T07:12:38;11.97;;;10.77;;
4553;SDS011;2289;48.316;15.174;2023-06-10T07:15:08;11.50;;;10.40;;
4553;SDS011;2289;48.316;15.174;2023-06-10T07:17:37;10.43;;;9.10;;
4553;SDS011;2289;48.316;15.174;2023-06-10T07:20:06;8.70;;;7.87;;
4553;SDS011;2289;48.316;15.174;2023-06-10T07:22:36;10.03;;;9.13;;
4553;SDS011;2289;48.316;15.174;2023-06-10T07:25:06;9.77;;;8.87;;
4553;SDS011;2289;48.316;15.174;2023-06-10T07:27:36;8.40;;;7.70;;
4553;SDS011;2289;48.316;15.174;2023-06-10T07:30:07;9.77;;;8.77;;
4553;SDS011;2289;48.316;15.174;2023-06-10T07:32:37;8.67;;;7.83;;
4553;SDS011;2289;48.316;15.174;2023-06-10T07:35:07;9.53;;;8.53;;
4553;SDS011;2289;48.316;15.174;2023-06-10T07:37:38;8.70;;;8.00;;
4553;SDS011;2289;48.316;15.174;2023-06-10T07:40:07;9.57;;;8.67;;
4553;SDS011;2289;48.316;15.174;2023-06-10T07:42:36;9.10;;;8.30;;
4553;SDS011;2289;48.316;15.174;2023-06-10T07:45:07;7.03;;;6.40;;
4553;SDS011;2289;48.316;15.174;2023-06-10T07:47:37;8.47;;;7.67;;
4553;SDS011;2289;48.316;15.174;2023-06-10T07:50:06;8.07;;;7.40;;
4553;SDS011;2289;48.316;15.174;2023-06-10T07:52:35;8.40;;;7.63;;
4553;SDS011;2289;48.316;15.174;2023-06-10T07:55:04;8.00;;;7.30;;
4553;SDS011;2289;48.316;15.174;2023-06-10T07:57:34;7.30;;;6.60;;
4553;SDS011;2289;48.316;15.174;2023-06-10T08:00:03;8.50;;;7.27;;
4553;SDS011;2289;48.316;15.174;2023-06-10T08:02:35;7.00;;;6.40;;
4553;SDS011;2289;48.316;15.174;2023-06-10T08:05:04;7.87;;;7.17;;
4553;SDS011;2289;48.316;15.174;2023-06-10T08:07:34;7.27;;;6.30;;
4553;SDS011;2289;48.316;15.174;2023-06-10T08:10:03;8.53;;;7.47;;
4553;SDS011;2289;48.316;15.174;2023-06-10T08:12:33;7.97;;;6.90;;
4553;SDS011;2289;48.316;15.174;2023-06-10T08:15:02;7.77;;;7.17;;
4553;SDS011;2289;48.316;15.174;2023-06-10T08:17:33;8.40;;;7.70;;
4553;SDS011;2289;48.316;15.174;2023-06-10T08:20:03;9.43;;;8.67;;
4553;SDS011;2289;48.316;15.174;2023-06-10T08:22:33;7.87;;;7.17;;
4553;SDS011;2289;48.316;15.174;2023-06-10T08:25:02;9.67;;;8.67;;
4553;SDS011;2289;48.316;15.174;2023-06-10T08:27:31;8.10;;;7.43;;
4553;SDS011;2289;48.316;15.174;2023-06-10T08:29:59;8.17;;;7.43;;
4553;SDS011;2289;48.316;15.174;2023-06-10T08:32:29;8.10;;;7.30;;
4553;SDS011;2289;48.316;15.174;2023-06-10T08:34:59;6.80;;;6.20;;
4553;SDS011;2289;48.316;15.174;2023-06-10T08:37:28;8.90;;;8.10;;
4553;SDS011;2289;48.316;15.174;2023-06-10T08:39:57;8.53;;;7.73;;
4553;SDS011;2289;48.316;15.174;2023-06-10T08:42:28;8.53;;;7.73;;
4553;SDS011;2289;48.316;15.174;2023-06-10T08:45:01;7.90;;;7.07;;
4553;SDS011;2289;48.316;15.174;2023-06-10T08:47:30;8.30;;;7.60;;
4553;SDS011;2289;48.316;15.174;2023-06-10T08:50:03;10.73;;;7.80;;
4553;SDS011;2289;48.316;15.174;2023-06-10T08:52:36;10.17;;;7.83;;
4553;SDS011;2289;48.316;15.174;2023-06-10T08:55:08;6.83;;;6.23;;
4553;SDS011;2289;48.316;15.174;2023-06-10T08:57:40;6.10;;;5.60;;
4553;SDS011;2289;48.316;15.174;2023-06-10T09:00:12;8.20;;;6.50;;
4553;SDS011;2289;48.316;15.174;2023-06-10T09:02:41;8.00;;;7.30;;
4553;SDS011;2289;48.316;15.174;2023-06-10T09:05:12;7.43;;;6.60;;
4553;SDS011;2289;48.316;15.174;2023-06-10T09:07:42;9.20;;;6.30;;
4553;SDS011;2289;48.316;15.174;2023-06-10T09:10:11;14.13;;;7.20;;
4553;SDS011;2289;48.316;15.174;2023-06-10T09:12:40;8.33;;;7.53;;
4553;SDS011;2289;48.316;15.174;2023-06-10T09:15:09;7.37;;;6.67;;
4553;SDS011;2289;48.316;15.174;2023-06-10T09:17:41;9.10;;;8.33;;
4553;SDS011;2289;48.316;15.174;2023-06-10T09:20:10;7.90;;;7.20;;
4553;SDS011;2289;48.316;15.174;2023-06-10T09:22:42;9.90;;;9.00;;
4553;SDS011;2289;48.316;15.174;2023-06-10T09:25:12;10.57;;;9.57;;
4553;SDS011;2289;48.316;15.174;2023-06-10T09:27:45;9.50;;;8.60;;
4553;SDS011;2289;48.316;15.174;2023-06-10T09:30:24;9.63;;;7.97;;
4553;SDS011;2289;48.316;15.174;2023-06-10T09:32:55;9.17;;;8.33;;
4553;SDS011;2289;48.316;15.174;2023-06-10T09:35:26;10.00;;;9.10;;
4553;SDS011;2289;48.316;15.174;2023-06-10T09:37:56;8.20;;;7.50;;
4553;SDS011;2289;48.316;15.174;2023-06-10T09:40:26;9.43;;;8.60;;
4553;SDS011;2289;48.316;15.174;2023-06-10T09:42:55;8.10;;;7.40;;
4553;SDS011;2289;48.316;15.174;2023-06-10T09:45:29;9.97;;;9.03;;
4553;SDS011;2289;48.316;15.174;2023-06-10T09:47:59;9.40;;;8.17;;
4553;SDS011;2289;48.316;15.174;2023-06-10T09:50:31;10.93;;;9.83;;
4553;SDS011;2289;48.316;15.174;2023-06-10T09:53:01;8.90;;;8.10;;
4553;SDS011;2289;48.316;15.174;2023-06-10T09:55:31;12.33;;;8.70;;
4553;SDS011;2289;48.316;15.174;2023-06-10T09:58:01;10.10;;;9.20;;
4553;SDS011;2289;48.316;15.174;2023-06-10T10:00:31;10.70;;;9.70;;
4553;SDS011;2289;48.316;15.174;2023-06-10T10:03:01;11.20;;;9.80;;
4553;SDS011;2289;48.316;15.174;2023-06-10T10:05:32;9.80;;;9.00;;
4553;SDS011;2289;48.316;15.174;2023-06-10T10:08:02;10.30;;;9.40;;
4553;SDS011;2289;48.316;15.174;2023-06-10T10:10:31;8.97;;;8.07;;
4553;SDS011;2289;48.316;15.174;2023-06-10T10:13:01;11.43;;;10.27;;
4553;SDS011;2289;48.316;15.174;2023-06-10T10:15:31;10.47;;;8.70;;
4553;SDS011;2289;48.316;15.174;2023-06-10T10:18:03;9.83;;;8.93;;
4553;SDS011;2289;48.316;15.174;2023-06-10T10:20:37;9.53;;;8.60;;
4553;SDS011;2289;48.316;15.174;2023-06-10T10:23:10;10.47;;;9.43;;
4553;SDS011;2289;48.316;15.174;2023-06-10T10:25:40;9.90;;;9.00;;
4553;SDS011;2289;48.316;15.174;2023-06-10T10:28:11;19.63;;;11.20;;
4553;SDS011;2289;48.316;15.174;2023-06-10T10:30:42;21.53;;;13.17;;
4553;SDS011;2289;48.316;15.174;2023-06-10T10:33:12;10.57;;;9.57;;
4553;SDS011;2289;48.316;15.174;2023-06-10T10:35:47;12.23;;;9.90;;
4553;SDS011;2289;48.316;15.174;2023-06-10T10:38:16;10.90;;;9.80;;
4553;SDS011;2289;48.316;15.174;2023-06-10T10:40:47;10.20;;;9.23;;
4553;SDS011;2289;48.316;15.174;2023-06-10T10:43:16;10.43;;;9.50;;
4553;SDS011;2289;48.316;15.174;2023-06-10T10:45:45;11.07;;;9.93;;
4553;SDS011;2289;48.316;15.174;2023-06-10T10:48:14;14.67;;;13.17;;
4553;SDS011;2289;48.316;15.174;2023-06-10T10:50:45;11.20;;;10.20;;
4553;SDS011;2289;48.316;15.174;2023-06-10T10:53:26;10.87;;;9.87;;
4553;SDS011;2289;48.316;15.174;2023-06-10T10:55:58;10.80;;;9.67;;
4553;SDS011;2289;48.316;15.174;2023-06-10T10:58:29;10.90;;;9.83;;
4553;SDS011;2289;48.316;15.174;2023-06-10T11:00:59;12.43;;;10.80;;
4553;SDS011;2289;48.316;15.174;2023-06-10T11:03:29;11.37;;;10.17;;
4553;SDS011;2289;48.316;15.174;2023-06-10T11:06:00;12.47;;;9.57;;
4553;SDS011;2289;48.316;15.174;2023-06-10T11:11:18;12.70;;;11.50;;
4553;SDS011;2289;48.316;15.174;2023-06-10T11:14:06;10.73;;;9.83;;
4553;SDS011;2289;48.316;15.174;2023-06-10T11:16:40;17.17;;;12.07;;
4553;SDS011;2289;48.316;15.174;2023-06-10T11:22:03;13.10;;;10.40;;
4553;SDS011;2289;48.316;15.174;2023-06-10T11:24:33;10.43;;;9.53;;
4553;SDS011;2289;48.316;15.174;2023-06-10T11:27:15;12.60;;;11.30;;
4553;SDS011;2289;48.316;15.174;2023-06-10T11:29:55;12.20;;;9.87;;
4553;SDS011;2289;48.316;15.174;2023-06-10T11:32:29;11.50;;;10.40;;
4553;SDS011;2289;48.316;15.174;2023-06-10T11:34:59;16.73;;;11.80;;
4553;SDS011;2289;48.316;15.174;2023-06-10T11:37:30;17.97;;;12.57;;
4553;SDS011;2289;48.316;15.174;2023-06-10T11:39:59;16.10;;;12.90;;
4553;SDS011;2289;48.316;15.174;2023-06-10T11:42:28;11.90;;;10.70;;
4553;SDS011;2289;48.316;15.174;2023-06-10T11:44:57;11.57;;;10.47;;
4553;SDS011;2289;48.316;15.174;2023-06-10T11:47:29;14.03;;;12.40;;
4553;SDS011;2289;48.316;15.174;2023-06-10T11:49:58;11.67;;;10.50;;
4553;SDS011;2289;48.316;15.174;2023-06-10T11:52:27;12.20;;;11.10;;
4553;SDS011;2289;48.316;15.174;2023-06-10T11:54:59;11.00;;;10.10;;
4553;SDS011;2289;48.316;15.174;2023-06-10T11:57:28;11.60;;;10.60;;
4553;SDS011;2289;48.316;15.174;2023-06-10T11:59:56;11.93;;;10.83;;
4553;SDS011;2289;48.316;15.174;2023-06-10T12:06:25;14.87;;;11.93;;
4553;SDS011;2289;48.316;15.174;2023-06-10T12:08:55;16.13;;;11.30;;
4553;SDS011;2289;48.316;15.174;2023-06-10T12:11:41;22.87;;;11.43;;
4553;SDS011;2289;48.316;15.174;2023-06-10T12:14:10;17.83;;;10.40;;
4553;SDS011;2289;48.316;15.174;2023-06-10T12:16:39;20.30;;;10.43;;
4553;SDS011;2289;48.316;15.174;2023-06-10T12:19:11;20.50;;;12.70;;
4553;SDS011;2289;48.316;15.174;2023-06-10T12:21:40;19.03;;;13.53;;
4553;SDS011;2289;48.316;15.174;2023-06-10T12:24:10;20.20;;;12.33;;
4553;SDS011;2289;48.316;15.174;2023-06-10T12:26:42;13.53;;;11.50;;
4553;SDS011;2289;48.316;15.174;2023-06-10T12:29:21;14.60;;;12.17;;
4553;SDS011;2289;48.316;15.174;2023-06-10T12:31:55;15.90;;;11.87;;
4553;SDS011;2289;48.316;15.174;2023-06-10T12:34:32;15.27;;;11.67;;
4553;SDS011;2289;48.316;15.174;2023-06-10T12:37:03;11.70;;;10.50;;
4553;SDS011;2289;48.316;15.174;2023-06-10T12:39:33;21.33;;;11.17;;
4553;SDS011;2289;48.316;15.174;2023-06-10T12:42:04;13.33;;;10.40;;
4553;SDS011;2289;48.316;15.174;2023-06-10T12:44:38;13.60;;;11.53;;
4553;SDS011;2289;48.316;15.174;2023-06-10T12:47:08;11.87;;;10.60;;
4553;SDS011;2289;48.316;15.174;2023-06-10T12:49:39;12.23;;;10.93;;
4553;SDS011;2289;48.316;15.174;2023-06-10T12:52:08;10.60;;;9.20;;
4553;SDS011;2289;48.316;15.174;2023-06-10T12:54:37;11.23;;;8.57;;
4553;SDS011;2289;48.316;15.174;2023-06-10T12:57:07;9.60;;;8.70;;
4553;SDS011;2289;48.316;15.174;2023-06-10T12:59:40;12.83;;;7.80;;
4553;SDS011;2289;48.316;15.174;2023-06-10T13:02:11;7.93;;;7.23;;
4553;SDS011;2289;48.316;15.174;2023-06-10T13:04:40;8.60;;;7.20;;
4553;SDS011;2289;48.316;15.174;2023-06-10T13:07:09;10.70;;;6.70;;
4553;SDS011;2289;48.316;15.174;2023-06-10T13:09:38;8.40;;;7.60;;
4553;SDS011;2289;48.316;15.174;2023-06-10T13:12:09;8.43;;;7.63;;
4553;SDS011;2289;48.316;15.174;2023-06-10T13:14:42;8.77;;;7.97;;
4553;SDS011;2289;48.316;15.174;2023-06-10T13:17:12;7.03;;;6.20;;
4553;SDS011;2289;48.316;15.174;2023-06-10T13:19:40;7.20;;;6.47;;
4553;SDS011;2289;48.316;15.174;2023-06-10T13:22:10;7.30;;;6.67;;
4553;SDS011;2289;48.316;15.174;2023-06-10T13:24:41;8.77;;;7.97;;
4553;SDS011;2289;48.316;15.174;2023-06-10T13:27:12;8.57;;;7.70;;
4553;SDS011;2289;48.316;15.174;2023-06-10T13:29:42;10.27;;;8.07;;
4553;SDS011;2289;48.316;15.174;2023-06-10T13:32:11;8.77;;;7.80;;
4553;SDS011;2289;48.316;15.174;2023-06-10T13:34:40;7.60;;;6.80;;
4553;SDS011;2289;48.316;15.174;2023-06-10T13:37:09;7.73;;;6.93;;
4553;SDS011;2289;48.316;15.174;2023-06-10T13:39:39;7.13;;;6.43;;
4553;SDS011;2289;48.316;15.174;2023-06-10T13:42:08;6.40;;;5.80;;
4553;SDS011;2289;48.316;15.174;2023-06-10T13:44:39;7.73;;;7.03;;
4553;SDS011;2289;48.316;15.174;2023-06-10T13:47:08;8.47;;;6.80;;
4553;SDS011;2289;48.316;15.174;2023-06-10T13:49:37;8.87;;;7.97;;
4553;SDS011;2289;48.316;15.174;2023-06-10T13:52:07;7.77;;;7.00;;
4553;SDS011;2289;48.316;15.174;2023-06-10T13:54:36;8.67;;;7.60;;
4553;SDS011;2289;48.316;15.174;2023-06-10T13:57:05;7.90;;;7.10;;
4553;SDS011;2289;48.316;15.174;2023-06-10T13:59:39;7.63;;;6.80;;
4553;SDS011;2289;48.316;15.174;2023-06-10T14:02:08;6.60;;;6.00;;
4553;SDS011;2289;48.316;15.174;2023-06-10T14:04:37;7.20;;;6.60;;
4553;SDS011;2289;48.316;15.174;2023-06-10T14:07:06;9.60;;;7.60;;
4553;SDS011;2289;48.316;15.174;2023-06-10T14:09:35;7.67;;;7.00;;
4553;SDS011;2289;48.316;15.174;2023-06-10T14:12:04;7.20;;;6.60;;
4553;SDS011;2289;48.316;15.174;2023-06-10T14:14:33;6.77;;;6.20;;
4553;SDS011;2289;48.316;15.174;2023-06-10T14:17:05;7.30;;;6.57;;
4553;SDS011;2289;48.316;15.174;2023-06-10T14:19:33;9.27;;;7.17;;
4553;SDS011;2289;48.316;15.174;2023-06-10T14:22:03;7.03;;;6.33;;
4553;SDS011;2289;48.316;15.174;2023-06-10T14:24:34;9.50;;;7.07;;
4553;SDS011;2289;48.316;15.174;2023-06-10T14:27:03;6.90;;;6.30;;
4553;SDS011;2289;48.316;15.174;2023-06-10T14:29:33;8.13;;;7.33;;
4553;SDS011;2289;48.316;15.174;2023-06-10T14:32:02;8.90;;;8.10;;
4553;SDS011;2289;48.316;15.174;2023-06-10T14:34:35;24.07;;;12.67;;
4553;SDS011;2289;48.316;15.174;2023-06-10T14:37:05;20.13;;;16.77;;
4553;SDS011;2289;48.316;15.174;2023-06-10T14:39:35;18.23;;;15.67;;
4553;SDS011;2289;48.316;15.174;2023-06-10T14:42:04;35.03;;;26.73;;
4553;SDS011;2289;48.316;15.174;2023-06-10T14:44:33;20.50;;;15.10;;
4553;SDS011;2289;48.316;15.174;2023-06-10T14:47:02;13.03;;;11.10;;
4553;SDS011;2289;48.316;15.174;2023-06-10T14:49:33;13.20;;;10.50;;
4553;SDS011;2289;48.316;15.174;2023-06-10T14:52:02;11.43;;;8.13;;
4553;SDS011;2289;48.316;15.174;2023-06-10T14:54:32;8.20;;;7.50;;
4553;SDS011;2289;48.316;15.174;2023-06-10T14:57:00;11.30;;;10.10;;
4553;SDS011;2289;48.316;15.174;2023-06-10T14:59:29;14.30;;;12.60;;
4553;SDS011;2289;48.316;15.174;2023-06-10T15:01:58;13.87;;;12.57;;
4553;SDS011;2289;48.316;15.174;2023-06-10T15:04:28;12.60;;;11.00;;
4553;SDS011;2289;48.316;15.174;2023-06-10T15:06:58;11.10;;;10.00;;
4553;SDS011;2289;48.316;15.174;2023-06-10T15:09:27;10.10;;;9.10;;
4553;SDS011;2289;48.316;15.174;2023-06-10T15:11:56;12.00;;;10.37;;
4553;SDS011;2289;48.316;15.174;2023-06-10T15:14:26;9.17;;;8.40;;